Terminal Aerodrome Forecast
Issued by NWS Blacksburg, VA

Current Version | Previous Version | Text Only | Print | Product List | Glossary Off
Versions: 1 2 3 4 5 6 7 8 9 10 11 12 13 14 15 16 17 18

000
FTUS41 KRNK 242332
TAFBLF
TAF
KBLF 242332Z 2500/2524 15005KT P6SM SCT080 BKN250
     FM251000 16004KT P6SM OVC025
     FM251200 17009KT P6SM -SHRA OVC020
     FM251600 23011G22KT 4SM SHRA OVC030
     FM251900 27015G30KT P6SM OVC015=

USA.gov is the U.S. government's official web portal to all federal, state and local government web resources and services.